Warnow Moon — A8VX3 — position and weather

sailwx.info

Track history (hours):
 
Tides and Currents Weather Stations Pressure Air Temp Water Temp Dewpoint Dewpoint Depression Visibility Wind Speed Wind Dir Waves Ship Positions

Warnow Moon

Last reported at 2014-Jan-04 08:19 UTC. Time now 2014-Aug-31 10:32 UTC.
Position S 33°18' E 017°02'.
Warning: this ship's position is months out of date.

Length 180 m; draft 8.1 m.

Type: Cargo ship. MMSI: 636092050.

Date/timePositionNaut miles runAvg speedWind from/ knotsBaromVisibWave heightAir tempDewpointWater temp
2014-Jan-04 08:19S 33°18' E 017°02'8611.1
2014-Jan-04 00:33S 34°28' E 018°01'2813.0
2014-Jan-03 22:26S 34°40' E 018°31'1213.6
2014-Jan-03 21:33S 34°44' E 018°45'1313.2
2014-Jan-03 20:33S 34°48' E 019°00'1413.3
2014-Jan-03 19:31S 34°51' E 019°17'1514.0
2014-Jan-03 18:28S 34°55' E 019°34'3213.8
2014-Jan-03 16:07S 34°57' E 020°13'2213.3
2014-Jan-03 14:26S 34°57' E 020°41'2712.6
2014-Jan-03 12:17S 34°53' E 021°13'  
Track history (hours):
 
Tides and Currents Weather Stations Pressure Air Temp Water Temp Dewpoint Dewpoint Depression Visibility Wind Speed Wind Dir Waves Ship Positions

Warnow Moon

Last reported at 2014-Jan-04 08:19 UTC. Time now 2014-Aug-31 10:32 UTC.
Position S 33°18' E 017°02'.
Warning: this ship's position is months out of date.

Length 180 m; draft 8.1 m.

Type: Cargo ship. MMSI: 636092050.

Date/timePositionNaut miles runAvg speedWind from/ knotsBaromVisibWave heightAir tempDewpointWater temp
2014-Jan-04 08:19S 33°18' E 017°02'8611.1
2014-Jan-04 00:33S 34°28' E 018°01'2813.0
2014-Jan-03 22:26S 34°40' E 018°31'1213.6
2014-Jan-03 21:33S 34°44' E 018°45'1313.2
2014-Jan-03 20:33S 34°48' E 019°00'1413.3
2014-Jan-03 19:31S 34°51' E 019°17'1514.0
2014-Jan-03 18:28S 34°55' E 019°34'3213.8
2014-Jan-03 16:07S 34°57' E 020°13'2213.3
2014-Jan-03 14:26S 34°57' E 020°41'2712.6
2014-Jan-03 12:17S 34°53' E 021°13'  

Dump ship's entire track history